Startpagina
METAR-TAF:

METAR-TAF

Vliegvelden :

Internationale luchthaven Koning Abdoel Aziz

Djedda, Saoedi-Arabië

breedte: 21-42N, lengte: 039-11E, hoogte: 15 m

Actueel weer

Dit bericht is 39 minuten geleden gemaakt, om 23:00 UTC
Wind 5 kt uit het noordnoordwesten
Temperatuur 32°C
Vochtigheid 32%
Druk 1001 hPa
Zicht 10 km of meer
Verspreide wolken op 4000 ft

METAR: OEJN 262300Z 34005KT 9999 SCT040 32/13 Q1001 NOSIG

Tijdstip: 02:39 (23:39 UTC)

Verwachting

Dit bericht is 39 minuten geleden gemaakt, om 23:00 UTC
Verwachting geldig van 27 om 00 UTC tot 28 om 06 UTC
Wind 6 kt uit het noorden
Zicht 10 km of meer
Weinig wolken op 4000 ft
Wijzigt naar
van 27 om 06 UTC tot 27 om 08 UTC
Wind 14 kt uit het westnoordwesten

TAF: OEJN 262300Z 2700/2806 36006KT 9999 FEW040 BECMG 2706/2708 30014KT

Waarnemingen en weersverwachtingen van meer dan 4000 vliegvelden (METAR en TAF).

De beschikbare stations zijn de gele en rode punten op de kaart.

Ga met uw muis naar het station om de naam te zien.

Klik dan om waarnemingen en weersverwachtingen te zien.

kaart wijzigen: klik op de groene knoppen met een zwart kruis om in te zoomen, op de groene knop met een streepje om uit te zoomen of op de groene pijlen voor aangrenzende kaarten.


METAR-TAF: